Time;durP1;ratioP1;P1;durP2;ratioP2;P2;SDS_P1;SDS_P2;PMS_P1;PMS_P2;Temp;Humidity;BMP_temperature;BMP_pressure;BME280_temperature;BME280_humidity;BME280_pressure;Samples;Min_cycle;Max_cycle;Signal;HPM_P1;HPM_P2
2022/11/23 00:00:28;;;;;;;20.83;12.63;;;;;;;6.01;100.00;98845.22;5077380;28;20020;-65
2022/11/23 00:02:57;;;;;;;23.33;13.45;;;;;;;6.11;100.00;98862.84;5079381;28;20036;-65
2022/11/23 00:05:24;;;;;;;19.55;12.38;;;;;;;5.99;100.00;98847.16;5082610;28;20549;-66
2022/11/23 00:07:49;;;;;;;21.95;14.05;;;;;;;6.06;100.00;98859.78;5078072;28;20361;-65
2022/11/23 00:10:15;;;;;;;19.65;12.70;;;;;;;6.00;100.00;98860.31;5082031;28;20081;-65
2022/11/23 00:12:41;;;;;;;18.77;12.70;;;;;;;5.96;100.00;98850.97;5072482;28;20035;-65
2022/11/23 00:15:06;;;;;;;21.00;12.38;;;;;;;6.00;100.00;98852.34;5075752;28;20020;-64
2022/11/23 00:17:32;;;;;;;19.55;12.55;;;;;;;5.99;100.00;98848.00;5080066;28;20479;-65
2022/11/23 00:19:57;;;;;;;26.75;12.82;;;;;;;5.97;100.00;98839.31;5082731;28;20028;-65
2022/11/23 00:22:23;;;;;;;16.58;11.40;;;;;;;5.86;100.00;98831.50;5077569;28;20130;-74
2022/11/23 00:24:49;;;;;;;18.38;11.80;;;;;;;6.02;100.00;98841.56;5081085;28;20028;-73
2022/11/23 00:27:15;;;;;;;18.88;12.18;;;;;;;6.02;100.00;98846.88;5080010;28;20067;-74
2022/11/23 00:29:40;;;;;;;21.00;12.60;;;;;;;5.94;100.00;98831.63;5073634;28;20031;-73
2022/11/23 00:32:05;;;;;;;18.48;12.38;;;;;;;5.91;100.00;98821.28;5076371;28;20095;-73
2022/11/23 00:34:31;;;;;;;19.38;13.02;;;;;;;6.02;100.00;98841.56;5080358;28;20024;-73
2022/11/23 00:36:56;;;;;;;20.38;13.13;;;;;;;6.00;100.00;98844.38;5071876;28;20028;-73
2022/11/23 00:39:22;;;;;;;20.55;12.93;;;;;;;5.95;100.00;98832.47;5077305;28;20051;-73
2022/11/23 00:41:47;;;;;;;20.10;12.18;;;;;;;5.94;100.00;98834.28;5073833;28;20107;-73
2022/11/23 00:44:13;;;;;;;22.35;13.15;;;;;;;5.92;100.00;98828.28;5079698;28;20697;-74
2022/11/23 00:46:38;;;;;;;21.42;13.93;;;;;;;6.05;100.00;98830.63;5077740;28;20448;-74
2022/11/23 00:49:05;;;;;;;20.75;13.48;;;;;;;5.95;100.00;98819.16;5077764;28;20017;-74
2022/11/23 00:51:33;;;;;;;21.00;13.57;;;;;;;5.92;100.00;98828.28;5067781;28;20027;-73
2022/11/23 00:54:00;;;;;;;22.13;13.30;;;;;;;5.92;100.00;98833.59;5073939;28;20039;-73
2022/11/23 00:56:27;;;;;;;19.60;13.60;;;;;;;5.84;100.00;98827.31;5078096;28;20048;-74
2022/11/23 00:58:54;;;;;;;23.63;14.23;;;;;;;5.93;100.00;98842.44;5072229;28;20029;-73
2022/11/23 01:01:23;;;;;;;21.60;13.63;;;;;;;5.89;100.00;98836.53;5074591;28;20048;-74
2022/11/23 01:03:51;;;;;;;22.25;13.27;;;;;;;5.86;100.00;98831.50;5073744;28;20499;-74
2022/11/23 01:06:39;;;;;;;20.48;13.27;;;;;;;5.86;100.00;98849.28;5077021;28;20032;-74
2022/11/23 01:09:25;;;;;;;20.35;13.30;;;;;;;5.90;100.00;98843.53;5071354;28;20127;-73
2022/11/23 01:11:52;;;;;;;19.67;12.02;;;;;;;5.90;100.00;98838.22;5077462;28;20476;-74
2022/11/23 01:14:17;;;;;;;19.90;12.25;;;;;;;5.92;100.00;98844.25;5075529;28;20480;-74
2022/11/23 01:16:43;;;;;;;18.10;11.73;;;;;;;5.98;100.00;98837.50;5080762;28;20036;-73
2022/11/23 01:19:14;;;;;;;17.92;11.60;;;;;;;5.93;100.00;98837.94;5073358;28;20025;-74
2022/11/23 01:21:40;;;;;;;19.20;13.18;;;;;;;5.96;100.00;98840.31;5072473;28;20042;-73
2022/11/23 01:24:08;;;;;;;17.60;12.40;;;;;;;5.95;100.00;98835.97;5074311;28;20515;-73
2022/11/23 01:26:33;;;;;;;17.27;12.20;;;;;;;5.97;100.00;98835.84;5079368;28;20042;-74
2022/11/23 01:28:59;;;;;;;18.02;11.40;;;;;;;5.96;100.00;98821.69;5070025;28;20020;-74
2022/11/23 01:31:25;;;;;;;18.58;12.98;;;;;;;6.00;100.00;98835.56;5070126;28;20194;-73
2022/11/23 01:33:53;;;;;;;18.50;11.90;;;;;;;5.99;100.00;98833.88;5070239;28;20032;-73
2022/11/23 01:36:20;;;;;;;20.15;12.30;;;;;;;5.92;100.00;98822.97;5069770;28;20342;-74
2022/11/23 01:38:48;;;;;;;18.08;12.57;;;;;;;5.94;100.00;98830.81;5072592;28;20540;-74
2022/11/23 01:41:19;;;;;;;17.50;11.82;;;;;;;5.93;100.00;98826.47;5080788;28;20039;-73
2022/11/23 01:43:45;;;;;;;17.60;11.75;;;;;;;5.83;100.00;98814.97;5078591;28;20097;-73
2022/11/23 01:46:11;;;;;;;15.85;11.43;;;;;;;5.92;100.00;98819.44;5077704;28;20032;-73
2022/11/23 01:48:52;;;;;;;19.52;12.70;;;;;;;5.76;100.00;98814.69;5073851;28;20073;-73
2022/11/23 01:51:21;;;;;;;18.05;11.55;;;;;;;5.88;100.00;98824.25;5071197;28;20153;-73
2022/11/23 01:53:49;;;;;;;15.63;11.77;;;;;;;5.88;100.00;98831.38;5076876;28;20069;-73
2022/11/23 01:56:22;;;;;;;18.65;12.40;;;;;;;5.87;100.00;98816.41;5072800;28;20504;-73
2022/11/23 01:58:52;;;;;;;19.58;12.02;;;;;;;5.87;100.00;98830.50;5068090;28;20036;-73
2022/11/23 02:01:18;;;;;;;20.45;12.68;;;;;;;5.84;100.00;98819.34;5077953;28;20221;-73
2022/11/23 02:03:47;;;;;;;16.88;12.40;;;;;;;5.85;100.00;98823.66;5075213;28;20147;-73
2022/11/23 02:06:18;;;;;;;20.35;11.90;;;;;;;5.84;100.00;98820.16;5068882;28;20602;-73
2022/11/23 02:08:44;;;;;;;16.98;12.20;;;;;;;5.87;100.00;98821.72;5073459;28;20405;-73
2022/11/23 02:11:12;;;;;;;22.00;12.85;;;;;;;5.80;100.00;98807.28;5070992;28;20028;-74
2022/11/23 02:13:38;;;;;;;17.52;11.93;;;;;;;5.83;100.00;98826.47;5076742;28;20020;-73
2022/11/23 02:16:04;;;;;;;20.70;12.57;;;;;;;5.82;100.00;98829.28;5072273;28;21995;-73
2022/11/23 02:18:32;;;;;;;17.67;12.32;;;;;;;5.76;100.00;98814.69;5081155;28;20068;-73
2022/11/23 02:21:00;;;;;;;19.48;12.35;;;;;;;5.74;100.00;98819.28;5080497;28;20048;-73
2022/11/23 02:23:46;;;;;;;18.65;12.27;;;;;;;5.76;100.00;98827.13;5082878;28;20024;-73
2022/11/23 02:26:16;;;;;;;18.52;11.98;;;;;;;5.70;100.00;98825.03;5070462;28;20053;-73
2022/11/23 02:29:21;;;;;;;19.58;12.38;;;;;;;5.70;100.00;98827.69;5075572;28;20032;-73
2022/11/23 02:31:46;;;;;;;17.63;11.82;;;;;;;5.69;100.00;98831.34;5073139;28;20055;-73
2022/11/23 02:34:11;;;;;;;19.85;12.18;;;;;;;5.61;100.00;98821.41;5075728;28;20032;-73
2022/11/23 02:36:49;;;;;;;18.77;12.43;;;;;;;5.62;100.00;98825.75;5080169;28;20058;-73
2022/11/23 02:39:16;;;;;;;17.13;12.35;;;;;;;5.61;100.00;98826.72;5077139;28;20033;-74
2022/11/23 02:41:50;;;;;;;16.70;11.55;;;;;;;5.54;100.00;98822.09;5076965;28;20031;-74
2022/11/23 02:44:21;;;;;;;17.77;11.80;;;;;;;5.57;100.00;98827.13;5078748;28;20044;-74
2022/11/23 02:46:47;;;;;;;18.70;11.98;;;;;;;5.55;100.00;98815.81;5072443;28;20028;-73
2022/11/23 02:49:12;;;;;;;17.55;12.20;;;;;;;5.53;100.00;98812.44;5072861;28;20090;-73
2022/11/23 02:51:37;;;;;;;17.60;10.80;;;;;;;5.52;100.00;98805.47;5073264;28;20028;-73
2022/11/23 02:54:03;;;;;;;16.63;11.32;;;;;;;5.58;100.00;98819.03;5070969;28;20049;-73
2022/11/23 02:56:28;;;;;;;15.90;11.18;;;;;;;5.57;100.00;98819.16;5083390;28;20118;-65
2022/11/23 02:58:54;;;;;;;17.95;11.68;;;;;;;5.49;100.00;98805.75;5075483;28;20703;-65
2022/11/23 03:01:19;;;;;;;16.65;11.23;;;;;;;5.56;100.00;98818.34;5077081;28;20031;-65
2022/11/23 03:03:44;;;;;;;18.48;11.63;;;;;;;5.50;100.00;98808.25;5078145;28;20070;-65
2022/11/23 03:06:10;;;;;;;17.30;11.43;;;;;;;5.30;100.00;98781.81;5067141;28;20281;-65
2022/11/23 03:08:35;;;;;;;16.30;12.07;;;;;;;5.40;100.00;98795.94;5075911;28;20477;-65
2022/11/23 03:11:01;;;;;;;17.88;11.05;;;;;;;5.37;100.00;98794.41;5078440;28;20035;-65
2022/11/23 03:13:26;;;;;;;16.30;11.43;;;;;;;5.45;100.00;98812.31;5076962;28;20668;-65
2022/11/23 03:15:55;;;;;;;16.23;10.88;;;;;;;5.44;100.00;98814.13;5073227;28;20020;-65
2022/11/23 03:18:21;;;;;;;15.57;11.00;;;;;;;5.45;100.00;98818.47;5074838;28;20020;-65
2022/11/23 03:20:46;;;;;;;17.33;10.68;;;;;;;5.48;100.00;98820.03;5073893;28;20039;-65
2022/11/23 03:23:12;;;;;;;14.73;10.90;;;;;;;5.50;100.00;98818.03;5067916;28;20119;-65
2022/11/23 03:25:37;;;;;;;16.45;10.50;;;;;;;5.45;100.00;98815.78;5084118;28;20032;-65
2022/11/23 03:28:03;;;;;;;16.30;11.30;;;;;;;5.41;100.00;98803.78;5077527;28;20150;-65
2022/11/23 03:30:30;;;;;;;16.60;10.90;;;;;;;5.45;100.00;98815.78;5085255;28;20378;-66
2022/11/23 03:32:55;;;;;;;22.95;10.98;;;;;;;5.45;100.00;98813.13;5080482;28;20119;-65
2022/11/23 03:35:21;;;;;;;15.93;11.02;;;;;;;5.44;100.00;98813.28;5065558;28;20029;-66
2022/11/23 03:37:46;;;;;;;15.30;9.55;;;;;;;5.42;100.00;98817.91;5078880;28;20387;-66
2022/11/23 03:40:12;;;;;;;18.42;10.98;;;;;;;5.40;100.00;98828.69;5075900;28;20470;-65
2022/11/23 03:42:41;;;;;;;18.17;10.77;;;;;;;5.42;100.00;98818.72;5073648;28;20036;-65
2022/11/23 03:45:07;;;;;;;15.27;10.32;;;;;;;5.41;100.00;98816.22;5078447;28;20480;-65
2022/11/23 03:47:33;;;;;;;16.83;10.65;;;;;;;5.41;100.00;98827.69;5073107;28;20036;-66
2022/11/23 03:49:58;;;;;;;17.42;10.93;;;;;;;5.40;100.00;98815.41;5080502;28;20032;-65
2022/11/23 03:52:24;;;;;;;15.23;10.23;;;;;;;5.42;100.00;98817.91;5075120;28;20506;-65
2022/11/23 03:54:49;;;;;;;15.20;10.52;;;;;;;5.42;100.00;98829.38;5072579;28;20027;-65
2022/11/23 03:57:15;;;;;;;13.70;9.40;;;;;;;5.41;100.00;98835.66;5076412;28;20508;-66
2022/11/23 03:59:40;;;;;;;14.02;9.95;;;;;;;5.28;100.00;98821.81;5078925;28;20024;-65
2022/11/23 04:02:06;;;;;;;17.10;11.02;;;;;;;5.31;100.00;98829.50;5077631;28;20032;-66
2022/11/23 04:04:33;;;;;;;15.93;10.43;;;;;;;5.45;100.00;98836.25;5077378;28;20032;-66
2022/11/23 04:06:59;;;;;;;15.80;10.25;;;;;;;5.47;100.00;98837.78;5077075;28;20027;-65
2022/11/23 04:09:24;;;;;;;15.40;10.10;;;;;;;5.37;100.00;98828.97;5075230;28;20032;-66
2022/11/23 04:11:50;;;;;;;13.10;9.80;;;;;;;5.42;100.00;98828.53;5073691;28;20088;-65
2022/11/23 04:14:15;;;;;;;16.80;10.98;;;;;;;5.42;100.00;98832.03;5073280;28;20093;-65
2022/11/23 04:16:41;;;;;;;15.45;9.88;;;;;;;5.43;100.00;98830.22;5074512;28;20028;-65
2022/11/23 04:19:06;;;;;;;16.83;10.85;;;;;;;5.36;100.00;98824.63;5072648;28;20032;-65
2022/11/23 04:21:32;;;;;;;16.50;10.13;;;;;;;5.36;100.00;98819.31;5078994;28;20016;-65
2022/11/23 04:23:57;;;;;;;15.00;10.02;;;;;;;5.49;100.00;98841.16;5077717;28;20021;-65
2022/11/23 04:26:22;;;;;;;17.27;10.57;;;;;;;5.42;100.00;98809.94;5073694;28;20028;-65
2022/11/23 04:28:48;;;;;;;13.60;10.20;;;;;;;5.45;100.00;98831.75;5076662;28;20020;-65
2022/11/23 04:31:13;;;;;;;14.95;9.63;;;;;;;5.45;100.00;98831.75;5078048;28;20041;-73
2022/11/23 04:33:39;;;;;;;14.40;10.43;;;;;;;5.41;100.00;98829.50;5081107;28;20047;-74
2022/11/23 04:36:04;;;;;;;14.30;9.57;;;;;;;5.38;100.00;98833.28;5082855;28;20472;-74
2022/11/23 04:38:30;;;;;;;14.32;9.75;;;;;;;5.42;100.00;98828.53;5079059;28;20024;-74
2022/11/23 04:40:55;;;;;;;13.00;9.45;;;;;;;5.41;100.00;98827.69;5082244;28;20103;-73
2022/11/23 04:43:21;;;;;;;13.35;9.15;;;;;;;5.48;100.00;98820.03;5078564;28;20028;-74
2022/11/23 04:45:46;;;;;;;12.98;9.00;;;;;;;5.46;100.00;98816.66;5077692;28;20024;-74
2022/11/23 04:48:12;;;;;;;13.98;9.50;;;;;;;5.38;100.00;98805.88;5075473;28;20701;-74
2022/11/23 04:50:37;;;;;;;13.60;8.70;;;;;;;5.49;100.00;98813.72;5080029;28;20024;-74
2022/11/23 04:53:04;;;;;;;13.32;9.18;;;;;;;5.48;100.00;98823.50;5075951;28;20123;-74
2022/11/23 04:55:29;;;;;;;14.07;9.40;;;;;;;5.42;100.00;98813.41;5081270;28;20044;-74
2022/11/23 04:57:55;;;;;;;14.88;9.90;;;;;;;5.50;100.00;98828.69;5078901;28;20809;-74
2022/11/23 05:00:20;;;;;;;12.88;9.18;;;;;;;5.50;100.00;98826.00;5072989;28;20024;-74
2022/11/23 05:02:46;;;;;;;17.05;10.75;;;;;;;5.47;100.00;98821.81;5076793;28;20063;-74
2022/11/23 05:05:11;;;;;;;13.65;9.15;;;;;;;5.51;100.00;98819.75;5075898;28;20043;-73
2022/11/23 05:07:36;;;;;;;13.52;9.75;;;;;;;5.48;100.00;98826.16;5076878;28;20139;-74
2022/11/23 05:10:03;;;;;;;13.73;9.82;;;;;;;5.47;100.00;98819.16;5074455;28;20024;-73
2022/11/23 05:12:29;;;;;;;13.75;9.48;;;;;;;5.51;100.00;98825.88;5075711;28;20459;-74
2022/11/23 05:14:54;;;;;;;15.57;9.95;;;;;;;5.48;100.00;98836.78;5074067;28;20028;-73
2022/11/23 05:17:20;;;;;;;13.57;8.82;;;;;;;5.51;100.00;98835.69;5078892;28;20023;-73
2022/11/23 05:19:45;;;;;;;11.07;8.45;;;;;;;5.50;100.00;98832.19;5076840;28;20029;-73
2022/11/23 05:22:10;;;;;;;14.20;9.02;;;;;;;5.49;100.00;98830.50;5075898;28;20060;-74
2022/11/23 05:24:36;;;;;;;12.18;9.32;;;;;;;5.53;100.00;98836.38;5070088;28;20412;-74
2022/11/23 05:27:01;;;;;;;13.48;9.07;;;;;;;5.44;100.00;98823.91;5078581;28;20028;-75
2022/11/23 05:29:27;;;;;;;11.98;8.93;;;;;;;5.55;100.00;98834.44;5073650;28;20361;-74
2022/11/23 05:31:53;;;;;;;12.90;9.20;;;;;;;5.58;100.00;98839.47;5074748;28;20085;-74
2022/11/23 05:34:18;;;;;;;13.38;9.40;;;;;;;5.59;100.00;98835.81;5074115;28;20095;-74
2022/11/23 05:36:44;;;;;;;13.07;9.00;;;;;;;5.57;100.00;98840.44;5074436;28;20103;-74
2022/11/23 05:39:09;;;;;;;13.63;9.98;;;;;;;5.54;100.00;98832.72;5070007;28;20085;-66
2022/11/23 05:41:35;;;;;;;16.65;9.27;;;;;;;5.55;100.00;98832.59;5075262;28;20040;-65
2022/11/23 05:44:00;;;;;;;12.18;8.07;;;;;;;5.58;100.00;98845.59;5083364;28;20050;-66
2022/11/23 05:46:26;;;;;;;14.15;8.82;;;;;;;5.57;100.00;98829.78;5070081;28;20063;-66
2022/11/23 05:48:52;;;;;;;14.32;8.75;;;;;;;5.56;100.00;98821.00;5070841;28;20073;-66
2022/11/23 05:51:17;;;;;;;12.48;9.05;;;;;;;5.60;100.00;98833.03;5071600;28;20016;-65
2022/11/23 05:53:43;;;;;;;10.65;8.70;;;;;;;5.60;100.00;98826.84;5073422;28;20028;-65
2022/11/23 05:56:08;;;;;;;11.45;8.73;;;;;;;5.52;100.00;98816.94;5074931;28;20583;-66
2022/11/23 05:58:33;;;;;;;13.10;9.45;;;;;;;5.52;100.00;98819.59;5077135;28;20132;-66
2022/11/23 06:00:59;;;;;;;13.20;9.30;;;;;;;5.54;100.00;98809.66;5071387;28;20044;-65
2022/11/23 06:03:25;;;;;;;13.13;8.82;;;;;;;5.65;100.00;98832.63;5081780;28;20070;-65
2022/11/23 06:05:51;;;;;;;15.77;9.27;;;;;;;5.54;100.00;98819.44;5073440;28;20062;-65
2022/11/23 06:08:16;;;;;;;12.68;8.85;;;;;;;5.62;100.00;98841.72;5083668;28;20024;-66
2022/11/23 06:10:42;;;;;;;14.05;9.38;;;;;;;5.62;100.00;98838.22;5070674;28;20106;-66
2022/11/23 06:13:07;;;;;;;12.50;9.15;;;;;;;5.65;100.00;98848.56;5083040;28;20680;-66
2022/11/23 06:15:32;;;;;;;14.60;10.25;;;;;;;5.58;100.00;98839.47;5069679;28;20017;-66
2022/11/23 06:18:01;;;;;;;17.42;10.40;;;;;;;5.48;100.00;98820.84;5071383;28;20028;-65
2022/11/23 06:20:28;;;;;;;12.57;9.30;;;;;;;5.60;100.00;98845.47;5070147;28;20033;-65
2022/11/23 06:22:54;;;;;;;13.00;9.73;;;;;;;5.62;100.00;98855.00;5075604;28;20554;-66
2022/11/23 06:25:20;;;;;;;14.30;10.02;;;;;;;5.57;100.00;98857.22;5076045;28;20024;-66
2022/11/23 06:27:56;;;;;;;15.80;10.60;;;;;;;5.64;100.00;98873.50;5082620;28;20503;-66
2022/11/23 06:30:23;;;;;;;15.60;10.15;;;;;;;5.63;100.00;98863.81;5076931;28;20789;-65
2022/11/23 06:32:48;;;;;;;16.77;10.88;;;;;;;5.59;100.00;98863.25;5066345;28;20031;-66
2022/11/23 06:35:14;;;;;;;15.63;10.73;;;;;;;5.64;100.00;98866.34;5078569;28;20032;-66
2022/11/23 06:37:39;;;;;;;14.55;10.48;;;;;;;5.58;100.00;98858.09;5083477;28;20059;-65
2022/11/23 06:40:05;;;;;;;17.00;10.25;;;;;;;5.68;100.00;98861.59;5080842;28;20039;-66
2022/11/23 06:42:31;;;;;;;14.80;10.45;;;;;;;5.66;100.00;98867.03;5083938;28;20028;-65
2022/11/23 06:44:56;;;;;;;14.48;10.55;;;;;;;5.68;100.00;98865.06;5080878;28;20073;-66
2022/11/23 06:47:21;;;;;;;14.85;10.10;;;;;;;5.71;100.00;98877.25;5075239;28;20026;-66
2022/11/23 06:49:47;;;;;;;14.68;10.43;;;;;;;5.72;100.00;98874.47;5066298;28;20063;-73
2022/11/23 06:52:12;;;;;;;15.07;10.73;;;;;;;5.69;100.00;98865.91;5078403;28;20032;-73
2022/11/23 06:54:38;;;;;;;18.35;11.38;;;;;;;5.77;100.00;98869.56;5076489;28;20032;-74
2022/11/23 06:57:07;;;;;;;15.25;9.98;;;;;;;5.74;100.00;98856.53;5078885;28;20043;-74
2022/11/23 06:59:32;;;;;;;14.43;9.98;;;;;;;5.80;100.00;98861.28;5080031;28;20067;-73
2022/11/23 07:01:58;;;;;;;15.77;10.40;;;;;;;5.77;100.00;98858.91;5078700;28;20150;-73
2022/11/23 07:04:23;;;;;;;15.77;10.20;;;;;;;5.81;100.00;98865.66;5076101;28;20075;-73
2022/11/23 07:06:49;;;;;;;14.05;10.30;;;;;;;5.79;100.00;98866.75;5071880;28;20032;-74
2022/11/23 07:09:14;;;;;;;18.23;10.93;;;;;;;5.84;100.00;98864.56;5080712;28;20566;-74
2022/11/23 07:11:39;;;;;;;15.32;10.38;;;;;;;5.84;100.00;98872.53;5079529;28;20019;-73
2022/11/23 07:14:05;;;;;;;14.30;10.15;;;;;;;5.87;100.00;98882.91;5078982;28;20506;-74
2022/11/23 07:16:31;;;;;;;16.25;10.68;;;;;;;5.87;100.00;98873.06;5079613;28;20594;-73
2022/11/23 07:18:57;;;;;;;14.77;10.60;;;;;;;5.90;100.00;98875.47;5076662;28;20020;-73
2022/11/23 07:21:22;;;;;;;14.60;9.95;;;;;;;5.88;100.00;98869.47;5079352;28;20024;-73
2022/11/23 07:23:48;;;;;;;15.65;9.73;;;;;;;5.87;100.00;98865.09;5079480;28;20038;-74
2022/11/23 07:26:13;;;;;;;14.63;10.05;;;;;;;5.84;100.00;98865.38;5076139;28;20028;-73
2022/11/23 07:28:38;;;;;;;15.07;9.73;;;;;;;5.85;100.00;98867.09;5076538;28;20039;-73
2022/11/23 07:31:04;;;;;;;18.42;10.52;;;;;;;5.90;100.00;98874.66;5075495;28;20031;-73
2022/11/23 07:33:29;;;;;;;16.98;11.52;;;;;;;5.91;100.00;98884.28;5083785;28;20093;-73
2022/11/23 07:35:55;;;;;;;15.40;9.90;;;;;;;5.89;100.00;98871.13;5079375;28;20784;-73
2022/11/23 07:38:20;;;;;;;16.58;10.02;;;;;;;5.88;100.00;98850.84;5076376;28;20029;-74
2022/11/23 07:40:49;;;;;;;16.40;10.63;;;;;;;5.99;100.00;98873.78;5080823;28;20033;-73
2022/11/23 07:43:14;;;;;;;14.75;10.43;;;;;;;5.98;100.00;98872.94;5076040;28;20540;-73
2022/11/23 07:45:40;;;;;;;15.85;10.98;;;;;;;6.02;100.00;98870.84;5084885;28;20147;-73
2022/11/23 07:48:07;;;;;;;15.43;9.63;;;;;;;6.10;100.00;98873.66;5079727;28;20665;-73
2022/11/23 07:50:35;;;;;;;14.10;9.90;;;;;;;6.16;100.00;98875.75;5074502;28;20036;-73
2022/11/23 07:53:02;;;;;;;16.48;10.75;;;;;;;6.30;100.00;98884.13;5072954;28;20036;-73
2022/11/23 07:55:29;;;;;;;16.02;10.20;;;;;;;6.34;100.00;98874.88;5074923;28;20037;-73
2022/11/23 07:57:54;;;;;;;16.38;9.85;;;;;;;6.46;100.00;98891.50;5082135;28;20419;-73
2022/11/23 08:00:21;;;;;;;12.70;8.88;;;;;;;6.45;100.00;98872.03;5081330;28;20031;-73
2022/11/23 08:02:47;;;;;;;11.70;9.10;;;;;;;6.55;100.00;98880.81;5072594;28;20133;-73
2022/11/23 08:05:13;;;;;;;14.52;9.85;;;;;;;6.51;100.00;98882.09;5079170;28;20044;-73
2022/11/23 08:07:38;;;;;;;13.00;9.50;;;;;;;6.59;100.00;98884.91;5079542;28;20523;-74
2022/11/23 08:10:04;;;;;;;14.25;9.02;;;;;;;6.61;100.00;98893.56;5078435;28;20028;-73
2022/11/23 08:12:30;;;;;;;14.13;9.30;;;;;;;6.66;100.00;98875.34;5076542;28;20028;-73
2022/11/23 08:14:55;;;;;;;15.27;8.77;;;;;;;6.83;100.00;98885.22;5073594;28;20032;-73
2022/11/23 08:17:21;;;;;;;12.93;8.40;;;;;;;6.90;100.00;98874.81;5085298;28;20093;-65
2022/11/23 08:19:47;;;;;;;12.88;8.60;;;;;;;6.92;100.00;98870.19;5081019;28;20093;-66
2022/11/23 08:22:12;;;;;;;13.77;8.95;;;;;;;7.07;100.00;98875.84;5073372;28;20035;-74
2022/11/23 08:24:37;;;;;;;11.95;8.27;;;;;;;7.13;100.00;98877.94;5077908;28;20105;-74
2022/11/23 08:27:03;;;;;;;12.85;8.55;;;;;;;7.17;100.00;98880.16;5076586;28;20028;-74
2022/11/23 08:29:29;;;;;;;12.38;9.15;;;;;;;7.29;100.00;98878.13;5077079;28;20047;-73
2022/11/23 08:31:54;;;;;;;11.15;8.30;;;;;;;7.42;100.00;98878.59;5077610;28;20040;-66
2022/11/23 08:34:20;;;;;;;12.38;8.50;;;;;;;7.47;100.00;98876.31;5070666;28;20051;-66
2022/11/23 08:36:46;;;;;;;12.98;8.85;;;;;;;7.52;100.00;98876.72;5072229;28;20098;-66
2022/11/23 08:39:13;;;;;;;10.68;8.57;;;;;;;7.39;100.00;98865.56;5080294;28;20494;-66
2022/11/23 08:41:42;;;;;;;11.73;8.35;;;;;;;7.43;100.00;98856.28;5078053;28;20027;-65
2022/11/23 08:44:09;;;;;;;11.57;8.73;;;;;;;7.58;100.00;98884.13;5080660;28;20428;-66
2022/11/23 08:46:35;;;;;;;13.85;8.90;;;;;;;7.52;100.00;98869.56;5077681;28;20055;-65
2022/11/23 08:49:00;;;;;;;11.88;8.40;;;;;;;7.61;100.00;98881.16;5078294;28;20725;-66
2022/11/23 08:51:26;;;;;;;11.90;7.80;;;;;;;7.48;100.00;98867.34;5082033;28;20027;-66
2022/11/23 08:53:51;;;;;;;12.73;8.98;;;;;;;7.62;100.00;98885.50;5074706;28;20027;-66
2022/11/23 08:56:17;;;;;;;13.32;8.68;;;;;;;7.66;100.00;98881.53;5074818;28;20043;-66
2022/11/23 08:58:43;;;;;;;10.05;8.05;;;;;;;7.73;100.00;98882.59;5071963;28;20035;-66
2022/11/23 09:01:13;;;;;;;13.63;9.23;;;;;;;7.83;100.00;98875.38;5073622;28;20058;-66
2022/11/23 09:03:39;;;;;;;11.63;8.95;;;;;;;7.92;100.00;98887.78;5077666;28;20077;-66
2022/11/23 09:06:05;;;;;;;12.68;8.50;;;;;;;7.87;100.00;98871.41;5071978;28;20047;-66
2022/11/23 09:08:30;;;;;;;12.05;8.73;;;;;;;8.03;100.00;98888.38;5080779;28;20468;-66
2022/11/23 09:11:00;;;;;;;11.80;8.75;;;;;;;8.08;100.00;98879.91;5079230;28;20027;-74
2022/11/23 09:13:26;;;;;;;11.65;8.73;;;;;;;8.16;100.00;98886.16;5079807;28;20035;-74
2022/11/23 09:15:59;;;;;;;14.13;8.88;;;;;;;8.15;100.00;98894.31;5081585;28;20037;-66
2022/11/23 09:18:26;;;;;;;12.45;9.05;;;;;;;8.12;100.00;98878.59;5079463;28;20098;-66
2022/11/23 09:20:52;;;;;;;12.52;8.75;;;;;;;8.20;100.00;98884.03;5081729;28;20020;-66
2022/11/23 09:23:17;;;;;;;14.15;8.88;;;;;;;8.18;100.00;98883.34;5076401;28;20824;-66
2022/11/23 09:25:46;;;;;;;12.85;8.70;;;;;;;8.12;100.00;98887.47;5081405;28;20044;-66
2022/11/23 09:28:13;;;;;;;13.35;8.98;;;;;;;8.14;100.00;98882.81;5070486;28;20038;-66
2022/11/23 09:30:39;;;;;;;12.93;9.02;;;;;;;8.06;100.00;98884.59;5081695;28;20031;-66
2022/11/23 09:33:04;;;;;;;12.82;9.48;;;;;;;8.05;100.00;98891.75;5081223;28;20027;-66
2022/11/23 09:35:30;;;;;;;12.45;9.15;;;;;;;7.94;100.00;98884.00;5082640;28;20039;-66
2022/11/23 09:37:57;;;;;;;13.85;8.73;;;;;;;8.09;100.00;98886.97;5066518;28;20039;-66
2022/11/23 09:40:24;;;;;;;14.18;8.98;;;;;;;8.01;100.00;98876.19;5084976;28;20032;-67
2022/11/23 09:42:56;;;;;;;15.93;10.02;;;;;;;8.11;100.00;98885.81;5088643;23;20076;-73
2022/11/23 09:45:46;;;;;;;11.73;8.80;;;;;;;8.18;100.00;98889.53;5053293;28;20039;-73
2022/11/23 09:48:30;;;;;;;12.65;8.70;;;;;;;8.21;100.00;98881.22;5059041;28;20039;-74
2022/11/23 09:51:03;;;;;;;16.00;9.87;;;;;;;8.31;100.00;98891.81;5060707;28;20378;-73
2022/11/23 09:53:31;;;;;;;12.57;9.35;;;;;;;8.35;100.00;98887.88;5052148;28;20270;-74
2022/11/23 09:55:56;;;;;;;11.48;8.25;;;;;;;8.41;100.00;98884.56;5059820;28;20025;-73
2022/11/23 09:58:27;;;;;;;9.90;8.60;;;;;;;8.45;100.00;98885.94;5054052;28;20082;-73
2022/11/23 10:00:54;;;;;;;10.70;8.10;;;;;;;8.48;100.00;98896.31;5060340;28;20040;-73
2022/11/23 10:03:20;;;;;;;11.52;8.88;;;;;;;8.49;100.00;98887.28;5060612;28;20047;-73
2022/11/23 10:06:16;;;;;;;10.38;8.60;;;;;;;8.52;100.00;98878.97;5065008;28;20435;-66
2022/11/23 10:09:10;;;;;;;15.57;9.05;;;;;;;8.54;100.00;98874.28;5045386;28;20536;-66
2022/11/23 10:11:49;;;;;;;15.43;9.50;;;;;;;8.58;100.00;98881.84;5067146;28;20032;-66
2022/11/23 10:14:17;;;;;;;12.52;8.82;;;;;;;8.55;100.00;98879.47;5067112;28;20028;-66
2022/11/23 10:16:56;;;;;;;12.50;9.18;;;;;;;8.52;100.00;98876.31;5067199;28;20029;-66
2022/11/23 10:19:30;;;;;;;14.57;8.77;;;;;;;8.44;100.00;98876.22;5055702;28;20032;-66
2022/11/23 10:22:24;;;;;;;13.98;9.48;;;;;;;8.41;100.00;98884.56;5067044;28;20545;-66
2022/11/23 10:24:52;;;;;;;14.38;9.00;;;;;;;8.21;100.00;98873.19;5065793;28;20032;-66
2022/11/23 10:27:23;;;;;;;10.93;8.85;;;;;;;8.21;100.00;98880.34;5065640;28;20060;-66
2022/11/23 10:29:52;;;;;;;14.55;9.13;;;;;;;8.17;100.00;98879.84;5051238;28;20047;-66
2022/11/23 10:32:31;;;;;;;12.48;9.10;;;;;;;8.07;100.00;98867.56;5051055;28;20036;-66
2022/11/23 10:35:33;;;;;;;12.68;8.57;;;;;;;8.19;100.00;98885.03;5061949;28;20082;-66
2022/11/23 10:38:12;;;;;;;12.75;9.50;;;;;;;8.18;100.00;98878.00;5036507;28;20029;-66
2022/11/23 10:40:57;;;;;;;15.35;9.52;;;;;;;8.12;100.00;98874.13;5069695;28;20017;-67
2022/11/23 10:43:28;;;;;;;14.02;9.73;;;;;;;8.10;100.00;98877.94;5066966;28;20106;-66
2022/11/23 10:46:28;;;;;;;13.00;9.93;;;;;;;8.13;100.00;98896.34;5071060;28;20105;-67
2022/11/23 10:48:54;;;;;;;12.60;8.95;;;;;;;7.97;100.00;98870.31;5058514;28;20021;-66
2022/11/23 10:51:31;;;;;;;14.15;9.68;;;;;;;8.10;100.00;98896.63;5053311;28;20041;-66
2022/11/23 10:54:00;;;;;;;14.23;10.02;;;;;;;8.06;100.00;98898.75;5054885;28;20024;-66
2022/11/23 10:56:25;;;;;;;14.38;9.68;;;;;;;8.05;100.00;98891.75;5069095;28;20025;-74
2022/11/23 10:58:51;;;;;;;16.60;9.52;;;;;;;8.02;100.00;98891.22;5053470;28;20029;-74
2022/11/23 11:01:25;;;;;;;15.73;9.95;;;;;;;8.01;100.00;98881.53;5067319;28;20162;-74
2022/11/23 11:04:00;;;;;;;20.30;11.90;;;;;;;8.04;100.00;98891.91;5052101;28;20033;-74
2022/11/23 11:06:32;;;;;;;19.67;11.02;;;;;;;7.99;100.00;98887.03;5058534;28;20025;-74
2022/11/23 11:09:03;;;;;;;18.17;11.73;;;;;;;7.96;100.00;98881.16;5061113;28;20021;-74
2022/11/23 11:11:34;;;;;;;17.77;11.60;;;;;;;8.02;100.00;98891.22;5064812;28;20035;-74
2022/11/23 11:14:13;;;;;;;18.50;11.90;;;;;;;8.01;100.00;98887.72;5058928;28;20040;-74
2022/11/23 11:16:47;;;;;;;17.17;10.80;;;;;;;8.02;100.00;98892.06;5058270;28;20028;-74
2022/11/23 11:19:25;;;;;;;15.65;11.02;;;;;;;8.06;100.00;98898.75;5058011;28;20044;-74
2022/11/23 11:21:51;;;;;;;16.85;10.63;;;;;;;8.04;100.00;98890.09;5064381;28;20516;-74
2022/11/23 11:24:31;;;;;;;14.93;10.98;;;;;;;7.99;100.00;98883.50;5061023;28;20027;-74